sensor_id;sensor_type;location;lat;lon;timestamp;P1;durP1;ratioP1;P2;durP2;ratioP2
32082;SDS011;18597;48.328;7.932;2024-01-25T00:01:13;25.27;;;6.70;;
32082;SDS011;18597;48.328;7.932;2024-01-25T00:03:39;14.70;;;5.47;;
32082;SDS011;18597;48.328;7.932;2024-01-25T00:06:06;10.80;;;6.80;;
32082;SDS011;18597;48.328;7.932;2024-01-25T00:08:32;19.20;;;6.33;;
32082;SDS011;18597;48.328;7.932;2024-01-25T00:10:59;11.60;;;4.47;;
32082;SDS011;18597;48.328;7.932;2024-01-25T00:13:26;13.13;;;4.53;;
32082;SDS011;18597;48.328;7.932;2024-01-25T00:15:52;15.57;;;7.67;;
32082;SDS011;18597;48.328;7.932;2024-01-25T00:18:18;17.93;;;8.33;;
32082;SDS011;18597;48.328;7.932;2024-01-25T00:20:44;16.83;;;8.00;;
32082;SDS011;18597;48.328;7.932;2024-01-25T00:23:10;16.87;;;8.60;;
32082;SDS011;18597;48.328;7.932;2024-01-25T00:25:37;20.00;;;7.57;;
32082;SDS011;18597;48.328;7.932;2024-01-25T00:28:03;17.97;;;7.47;;
32082;SDS011;18597;48.328;7.932;2024-01-25T00:30:29;23.30;;;6.70;;
32082;SDS011;18597;48.328;7.932;2024-01-25T00:32:56;12.30;;;5.13;;
32082;SDS011;18597;48.328;7.932;2024-01-25T00:35:22;22.87;;;6.60;;
32082;SDS011;18597;48.328;7.932;2024-01-25T00:37:50;13.27;;;6.47;;
32082;SDS011;18597;48.328;7.932;2024-01-25T00:40:16;16.00;;;4.67;;
32082;SDS011;18597;48.328;7.932;2024-01-25T00:42:44;18.57;;;6.10;;
32082;SDS011;18597;48.328;7.932;2024-01-25T00:45:18;18.13;;;5.90;;
32082;SDS011;18597;48.328;7.932;2024-01-25T00:47:46;18.97;;;4.50;;
32082;SDS011;18597;48.328;7.932;2024-01-25T00:50:12;12.33;;;4.80;;
32082;SDS011;18597;48.328;7.932;2024-01-25T00:52:39;9.67;;;4.20;;
32082;SDS011;18597;48.328;7.932;2024-01-25T00:55:05;18.83;;;4.90;;
32082;SDS011;18597;48.328;7.932;2024-01-25T00:57:32;17.10;;;4.80;;
32082;SDS011;18597;48.328;7.932;2024-01-25T00:59:58;18.10;;;5.10;;
32082;SDS011;18597;48.328;7.932;2024-01-25T01:02:25;17.13;;;4.70;;
32082;SDS011;18597;48.328;7.932;2024-01-25T01:04:55;9.53;;;4.03;;
32082;SDS011;18597;48.328;7.932;2024-01-25T01:07:23;14.40;;;4.30;;
32082;SDS011;18597;48.328;7.932;2024-01-25T01:09:49;14.67;;;5.10;;
32082;SDS011;18597;48.328;7.932;2024-01-25T01:12:15;20.90;;;4.77;;
32082;SDS011;18597;48.328;7.932;2024-01-25T01:14:41;8.00;;;3.90;;
32082;SDS011;18597;48.328;7.932;2024-01-25T01:17:07;14.00;;;4.20;;
32082;SDS011;18597;48.328;7.932;2024-01-25T01:19:33;20.33;;;4.67;;
32082;SDS011;18597;48.328;7.932;2024-01-25T01:21:59;12.70;;;3.53;;
32082;SDS011;18597;48.328;7.932;2024-01-25T01:24:25;12.13;;;3.37;;
32082;SDS011;18597;48.328;7.932;2024-01-25T01:26:51;22.17;;;3.90;;
32082;SDS011;18597;48.328;7.932;2024-01-25T01:29:17;4.23;;;3.00;;
32082;SDS011;18597;48.328;7.932;2024-01-25T01:31:43;9.90;;;2.73;;
32082;SDS011;18597;48.328;7.932;2024-01-25T01:34:09;8.67;;;2.90;;
32082;SDS011;18597;48.328;7.932;2024-01-25T01:36:37;10.33;;;2.33;;
32082;SDS011;18597;48.328;7.932;2024-01-25T01:39:03;15.20;;;2.87;;
32082;SDS011;18597;48.328;7.932;2024-01-25T01:41:29;10.03;;;2.50;;
32082;SDS011;18597;48.328;7.932;2024-01-25T01:43:55;13.57;;;2.87;;
32082;SDS011;18597;48.328;7.932;2024-01-25T01:46:27;10.43;;;3.07;;
32082;SDS011;18597;48.328;7.932;2024-01-25T01:49:00;19.23;;;3.93;;
32082;SDS011;18597;48.328;7.932;2024-01-25T01:51:27;15.63;;;2.30;;
32082;SDS011;18597;48.328;7.932;2024-01-25T01:53:56;7.20;;;3.07;;
32082;SDS011;18597;48.328;7.932;2024-01-25T01:56:24;10.17;;;2.53;;
32082;SDS011;18597;48.328;7.932;2024-01-25T01:58:55;14.53;;;3.10;;
32082;SDS011;18597;48.328;7.932;2024-01-25T02:01:25;8.80;;;3.03;;
32082;SDS011;18597;48.328;7.932;2024-01-25T02:03:51;13.57;;;3.20;;
32082;SDS011;18597;48.328;7.932;2024-01-25T02:06:18;5.37;;;3.77;;
32082;SDS011;18597;48.328;7.932;2024-01-25T02:08:45;5.50;;;2.70;;
32082;SDS011;18597;48.328;7.932;2024-01-25T02:11:12;4.67;;;2.77;;
32082;SDS011;18597;48.328;7.932;2024-01-25T02:13:38;10.03;;;3.77;;
32082;SDS011;18597;48.328;7.932;2024-01-25T02:16:04;17.20;;;3.87;;
32082;SDS011;18597;48.328;7.932;2024-01-25T02:18:33;14.47;;;3.43;;
32082;SDS011;18597;48.328;7.932;2024-01-25T02:20:59;15.27;;;4.23;;
32082;SDS011;18597;48.328;7.932;2024-01-25T02:23:25;12.33;;;2.83;;
32082;SDS011;18597;48.328;7.932;2024-01-25T02:25:51;8.03;;;2.90;;
32082;SDS011;18597;48.328;7.932;2024-01-25T02:28:17;9.60;;;3.20;;
32082;SDS011;18597;48.328;7.932;2024-01-25T02:30:42;9.67;;;2.90;;
32082;SDS011;18597;48.328;7.932;2024-01-25T02:33:08;11.37;;;3.37;;
32082;SDS011;18597;48.328;7.932;2024-01-25T02:35:34;6.83;;;3.23;;
32082;SDS011;18597;48.328;7.932;2024-01-25T02:38:00;9.43;;;2.90;;
32082;SDS011;18597;48.328;7.932;2024-01-25T02:40:26;11.17;;;3.30;;
32082;SDS011;18597;48.328;7.932;2024-01-25T02:42:52;10.33;;;3.80;;
32082;SDS011;18597;48.328;7.932;2024-01-25T02:45:18;18.67;;;5.33;;
32082;SDS011;18597;48.328;7.932;2024-01-25T02:47:43;10.73;;;3.13;;
32082;SDS011;18597;48.328;7.932;2024-01-25T02:50:09;18.00;;;4.40;;
32082;SDS011;18597;48.328;7.932;2024-01-25T02:52:35;7.83;;;2.97;;
32082;SDS011;18597;48.328;7.932;2024-01-25T02:55:01;16.20;;;4.03;;
32082;SDS011;18597;48.328;7.932;2024-01-25T02:57:26;9.03;;;2.70;;
32082;SDS011;18597;48.328;7.932;2024-01-25T02:59:52;8.90;;;4.00;;
32082;SDS011;18597;48.328;7.932;2024-01-25T03:02:18;8.03;;;4.13;;
32082;SDS011;18597;48.328;7.932;2024-01-25T03:04:44;7.80;;;3.60;;
32082;SDS011;18597;48.328;7.932;2024-01-25T03:07:11;16.13;;;3.70;;
32082;SDS011;18597;48.328;7.932;2024-01-25T03:09:37;7.77;;;4.00;;
32082;SDS011;18597;48.328;7.932;2024-01-25T03:12:02;11.27;;;2.83;;
32082;SDS011;18597;48.328;7.932;2024-01-25T03:14:28;20.00;;;2.70;;
32082;SDS011;18597;48.328;7.932;2024-01-25T03:16:54;13.70;;;3.20;;
32082;SDS011;18597;48.328;7.932;2024-01-25T03:19:22;16.83;;;4.50;;
32082;SDS011;18597;48.328;7.932;2024-01-25T03:21:50;5.20;;;3.73;;
32082;SDS011;18597;48.328;7.932;2024-01-25T03:24:17;16.23;;;4.10;;
32082;SDS011;18597;48.328;7.932;2024-01-25T03:26:42;8.43;;;2.40;;
32082;SDS011;18597;48.328;7.932;2024-01-25T03:29:08;18.43;;;3.97;;
32082;SDS011;18597;48.328;7.932;2024-01-25T03:31:34;5.33;;;3.77;;
32082;SDS011;18597;48.328;7.932;2024-01-25T03:34:01;15.00;;;3.17;;
32082;SDS011;18597;48.328;7.932;2024-01-25T03:36:27;13.60;;;3.07;;
32082;SDS011;18597;48.328;7.932;2024-01-25T03:38:53;7.47;;;3.20;;
32082;SDS011;18597;48.328;7.932;2024-01-25T03:41:19;13.87;;;3.00;;
32082;SDS011;18597;48.328;7.932;2024-01-25T03:43:45;15.43;;;2.63;;
32082;SDS011;18597;48.328;7.932;2024-01-25T03:46:11;6.57;;;2.87;;
32082;SDS011;18597;48.328;7.932;2024-01-25T03:48:37;11.53;;;3.13;;
32082;SDS011;18597;48.328;7.932;2024-01-25T03:51:03;12.17;;;2.37;;
32082;SDS011;18597;48.328;7.932;2024-01-25T03:53:29;15.13;;;2.77;;
32082;SDS011;18597;48.328;7.932;2024-01-25T03:55:55;25.10;;;3.60;;
32082;SDS011;18597;48.328;7.932;2024-01-25T03:58:21;11.87;;;2.97;;
32082;SDS011;18597;48.328;7.932;2024-01-25T04:00:46;19.20;;;2.87;;
32082;SDS011;18597;48.328;7.932;2024-01-25T04:03:12;11.23;;;2.97;;
32082;SDS011;18597;48.328;7.932;2024-01-25T04:05:38;24.63;;;3.10;;
32082;SDS011;18597;48.328;7.932;2024-01-25T04:08:04;15.33;;;2.67;;
32082;SDS011;18597;48.328;7.932;2024-01-25T04:10:31;7.60;;;2.30;;
32082;SDS011;18597;48.328;7.932;2024-01-25T04:12:57;23.93;;;3.33;;
32082;SDS011;18597;48.328;7.932;2024-01-25T04:15:25;22.23;;;3.40;;
32082;SDS011;18597;48.328;7.932;2024-01-25T04:17:51;26.07;;;4.57;;
32082;SDS011;18597;48.328;7.932;2024-01-25T04:20:18;13.10;;;3.57;;
32082;SDS011;18597;48.328;7.932;2024-01-25T04:22:44;13.70;;;3.20;;
32082;SDS011;18597;48.328;7.932;2024-01-25T04:25:10;12.33;;;2.77;;
32082;SDS011;18597;48.328;7.932;2024-01-25T04:27:37;18.90;;;3.93;;
32082;SDS011;18597;48.328;7.932;2024-01-25T04:30:04;16.17;;;4.63;;
32082;SDS011;18597;48.328;7.932;2024-01-25T04:32:31;11.07;;;3.40;;
32082;SDS011;18597;48.328;7.932;2024-01-25T04:34:57;11.73;;;5.70;;
32082;SDS011;18597;48.328;7.932;2024-01-25T04:37:23;17.03;;;4.00;;
32082;SDS011;18597;48.328;7.932;2024-01-25T04:39:49;14.67;;;4.50;;
32082;SDS011;18597;48.328;7.932;2024-01-25T04:42:17;18.17;;;5.13;;
32082;SDS011;18597;48.328;7.932;2024-01-25T04:44:46;19.70;;;5.00;;
32082;SDS011;18597;48.328;7.932;2024-01-25T04:47:12;13.90;;;3.77;;
32082;SDS011;18597;48.328;7.932;2024-01-25T04:49:39;17.83;;;4.47;;
32082;SDS011;18597;48.328;7.932;2024-01-25T04:52:05;16.20;;;4.27;;
32082;SDS011;18597;48.328;7.932;2024-01-25T04:54:31;18.50;;;4.23;;
32082;SDS011;18597;48.328;7.932;2024-01-25T04:56:57;13.20;;;4.10;;
32082;SDS011;18597;48.328;7.932;2024-01-25T04:59:23;8.90;;;4.00;;
32082;SDS011;18597;48.328;7.932;2024-01-25T05:01:49;14.82;;;5.70;;
32082;SDS011;18597;48.328;7.932;2024-01-25T05:04:15;6.93;;;4.80;;
32082;SDS011;18597;48.328;7.932;2024-01-25T05:06:41;11.37;;;4.17;;
32082;SDS011;18597;48.328;7.932;2024-01-25T05:09:07;14.43;;;4.07;;
32082;SDS011;18597;48.328;7.932;2024-01-25T05:11:37;15.47;;;4.90;;
32082;SDS011;18597;48.328;7.932;2024-01-25T05:14:05;19.33;;;4.50;;
32082;SDS011;18597;48.328;7.932;2024-01-25T05:16:31;11.47;;;4.97;;
32082;SDS011;18597;48.328;7.932;2024-01-25T05:18:58;14.27;;;5.47;;
32082;SDS011;18597;48.328;7.932;2024-01-25T05:21:23;13.37;;;5.43;;
32082;SDS011;18597;48.328;7.932;2024-01-25T05:23:50;10.93;;;3.90;;
32082;SDS011;18597;48.328;7.932;2024-01-25T05:26:16;12.87;;;4.73;;
32082;SDS011;18597;48.328;7.932;2024-01-25T05:28:42;15.43;;;4.63;;
32082;SDS011;18597;48.328;7.932;2024-01-25T05:31:08;17.90;;;5.37;;
32082;SDS011;18597;48.328;7.932;2024-01-25T05:33:38;11.23;;;4.40;;
32082;SDS011;18597;48.328;7.932;2024-01-25T05:36:05;13.17;;;5.87;;
32082;SDS011;18597;48.328;7.932;2024-01-25T05:38:31;27.63;;;6.07;;
32082;SDS011;18597;48.328;7.932;2024-01-25T05:40:57;16.13;;;5.20;;
32082;SDS011;18597;48.328;7.932;2024-01-25T05:43:23;25.67;;;5.20;;
32082;SDS011;18597;48.328;7.932;2024-01-25T05:45:50;18.77;;;4.90;;
32082;SDS011;18597;48.328;7.932;2024-01-25T05:48:15;21.47;;;6.90;;
32082;SDS011;18597;48.328;7.932;2024-01-25T05:50:41;19.30;;;5.30;;
32082;SDS011;18597;48.328;7.932;2024-01-25T05:53:07;16.50;;;4.87;;
32082;SDS011;18597;48.328;7.932;2024-01-25T05:55:33;17.43;;;4.50;;
32082;SDS011;18597;48.328;7.932;2024-01-25T05:57:59;19.70;;;9.33;;
32082;SDS011;18597;48.328;7.932;2024-01-25T06:00:24;46.20;;;22.73;;
32082;SDS011;18597;48.328;7.932;2024-01-25T06:02:50;32.13;;;17.27;;
32082;SDS011;18597;48.328;7.932;2024-01-25T06:05:16;27.10;;;13.20;;
32082;SDS011;18597;48.328;7.932;2024-01-25T06:07:43;33.20;;;10.70;;
32082;SDS011;18597;48.328;7.932;2024-01-25T06:10:09;14.90;;;7.50;;
32082;SDS011;18597;48.328;7.932;2024-01-25T06:12:35;25.53;;;8.23;;
32082;SDS011;18597;48.328;7.932;2024-01-25T06:15:01;25.77;;;8.33;;
32082;SDS011;18597;48.328;7.932;2024-01-25T06:17:27;18.83;;;9.30;;
32082;SDS011;18597;48.328;7.932;2024-01-25T06:19:53;24.83;;;8.27;;
32082;SDS011;18597;48.328;7.932;2024-01-25T06:22:19;12.90;;;6.87;;
32082;SDS011;18597;48.328;7.932;2024-01-25T06:24:44;16.97;;;7.27;;
32082;SDS011;18597;48.328;7.932;2024-01-25T06:27:10;22.40;;;9.17;;
32082;SDS011;18597;48.328;7.932;2024-01-25T06:29:36;26.00;;;8.03;;
32082;SDS011;18597;48.328;7.932;2024-01-25T06:32:02;17.03;;;6.93;;
32082;SDS011;18597;48.328;7.932;2024-01-25T06:34:28;19.70;;;8.40;;
32082;SDS011;18597;48.328;7.932;2024-01-25T06:36:54;24.33;;;10.63;;
32082;SDS011;18597;48.328;7.932;2024-01-25T06:39:19;26.90;;;9.40;;
32082;SDS011;18597;48.328;7.932;2024-01-25T06:41:45;22.97;;;10.10;;
32082;SDS011;18597;48.328;7.932;2024-01-25T06:44:11;24.50;;;10.87;;
32082;SDS011;18597;48.328;7.932;2024-01-25T06:46:38;32.83;;;12.17;;
32082;SDS011;18597;48.328;7.932;2024-01-25T06:49:03;34.53;;;13.63;;
32082;SDS011;18597;48.328;7.932;2024-01-25T06:51:29;33.63;;;14.23;;
32082;SDS011;18597;48.328;7.932;2024-01-25T06:53:55;31.10;;;14.37;;
32082;SDS011;18597;48.328;7.932;2024-01-25T06:56:21;27.83;;;11.40;;
32082;SDS011;18597;48.328;7.932;2024-01-25T06:58:47;36.13;;;13.97;;
32082;SDS011;18597;48.328;7.932;2024-01-25T07:01:13;34.97;;;16.10;;
32082;SDS011;18597;48.328;7.932;2024-01-25T07:03:44;38.07;;;19.60;;
32082;SDS011;18597;48.328;7.932;2024-01-25T07:06:10;34.40;;;17.67;;
32082;SDS011;18597;48.328;7.932;2024-01-25T07:08:36;43.37;;;19.03;;
32082;SDS011;18597;48.328;7.932;2024-01-25T07:11:02;41.30;;;18.57;;
32082;SDS011;18597;48.328;7.932;2024-01-25T07:13:28;45.77;;;21.03;;
32082;SDS011;18597;48.328;7.932;2024-01-25T07:15:53;35.07;;;15.10;;
32082;SDS011;18597;48.328;7.932;2024-01-25T07:18:19;25.50;;;12.83;;
32082;SDS011;18597;48.328;7.932;2024-01-25T07:20:46;49.83;;;17.97;;
32082;SDS011;18597;48.328;7.932;2024-01-25T07:23:11;39.20;;;16.27;;
32082;SDS011;18597;48.328;7.932;2024-01-25T07:25:37;22.50;;;11.17;;
32082;SDS011;18597;48.328;7.932;2024-01-25T07:28:03;21.63;;;12.00;;
32082;SDS011;18597;48.328;7.932;2024-01-25T07:30:29;25.43;;;11.80;;
32082;SDS011;18597;48.328;7.932;2024-01-25T07:32:55;24.67;;;10.17;;
32082;SDS011;18597;48.328;7.932;2024-01-25T07:35:21;20.70;;;9.53;;
32082;SDS011;18597;48.328;7.932;2024-01-25T07:37:48;20.23;;;11.03;;
32082;SDS011;18597;48.328;7.932;2024-01-25T07:40:14;54.90;;;17.23;;
32082;SDS011;18597;48.328;7.932;2024-01-25T07:42:40;41.77;;;13.50;;
32082;SDS011;18597;48.328;7.932;2024-01-25T07:45:06;67.03;;;25.33;;
32082;SDS011;18597;48.328;7.932;2024-01-25T07:47:32;97.03;;;32.47;;
32082;SDS011;18597;48.328;7.932;2024-01-25T07:49:58;46.53;;;18.93;;
32082;SDS011;18597;48.328;7.932;2024-01-25T07:52:25;35.60;;;14.20;;
32082;SDS011;18597;48.328;7.932;2024-01-25T07:54:51;33.43;;;15.53;;
32082;SDS011;18597;48.328;7.932;2024-01-25T07:57:18;31.27;;;15.67;;
32082;SDS011;18597;48.328;7.932;2024-01-25T07:59:44;49.03;;;17.93;;
32082;SDS011;18597;48.328;7.932;2024-01-25T08:02:10;32.10;;;14.80;;
32082;SDS011;18597;48.328;7.932;2024-01-25T08:04:36;24.27;;;11.50;;
32082;SDS011;18597;48.328;7.932;2024-01-25T08:07:01;33.57;;;17.67;;
32082;SDS011;18597;48.328;7.932;2024-01-25T08:09:28;31.93;;;19.87;;
32082;SDS011;18597;48.328;7.932;2024-01-25T08:11:53;26.80;;;15.47;;
32082;SDS011;18597;48.328;7.932;2024-01-25T08:14:19;31.93;;;14.83;;
32082;SDS011;18597;48.328;7.932;2024-01-25T08:16:45;32.13;;;15.20;;
32082;SDS011;18597;48.328;7.932;2024-01-25T08:19:11;36.00;;;16.77;;
32082;SDS011;18597;48.328;7.932;2024-01-25T08:21:37;31.90;;;18.33;;
32082;SDS011;18597;48.328;7.932;2024-01-25T08:24:02;32.37;;;16.90;;
32082;SDS011;18597;48.328;7.932;2024-01-25T08:26:29;31.27;;;16.10;;
32082;SDS011;18597;48.328;7.932;2024-01-25T08:28:55;29.80;;;15.67;;
32082;SDS011;18597;48.328;7.932;2024-01-25T08:31:20;45.20;;;17.57;;
32082;SDS011;18597;48.328;7.932;2024-01-25T08:33:46;41.97;;;16.93;;
32082;SDS011;18597;48.328;7.932;2024-01-25T08:36:16;27.40;;;11.73;;
32082;SDS011;18597;48.328;7.932;2024-01-25T08:38:43;24.10;;;10.27;;
32082;SDS011;18597;48.328;7.932;2024-01-25T08:41:09;12.40;;;9.43;;
32082;SDS011;18597;48.328;7.932;2024-01-25T08:43:36;19.00;;;11.60;;
32082;SDS011;18597;48.328;7.932;2024-01-25T08:46:02;13.23;;;9.70;;
32082;SDS011;18597;48.328;7.932;2024-01-25T08:48:28;6.10;;;4.87;;
32082;SDS011;18597;48.328;7.932;2024-01-25T08:50:54;9.17;;;4.67;;
32082;SDS011;18597;48.328;7.932;2024-01-25T08:53:20;12.53;;;4.93;;
32082;SDS011;18597;48.328;7.932;2024-01-25T08:55:48;11.10;;;4.47;;
32082;SDS011;18597;48.328;7.932;2024-01-25T08:58:13;11.80;;;5.10;;
32082;SDS011;18597;48.328;7.932;2024-01-25T09:00:39;5.20;;;4.37;;
32082;SDS011;18597;48.328;7.932;2024-01-25T09:03:05;15.37;;;5.43;;
32082;SDS011;18597;48.328;7.932;2024-01-25T09:05:31;9.30;;;5.77;;
32082;SDS011;18597;48.328;7.932;2024-01-25T09:07:59;10.40;;;5.13;;
32082;SDS011;18597;48.328;7.932;2024-01-25T09:10:25;7.90;;;6.07;;
32082;SDS011;18597;48.328;7.932;2024-01-25T09:12:51;15.10;;;6.63;;
32082;SDS011;18597;48.328;7.932;2024-01-25T09:15:16;9.33;;;7.60;;
32082;SDS011;18597;48.328;7.932;2024-01-25T09:17:43;2.10;;;2.00;;
32082;SDS011;18597;48.328;7.932;2024-01-25T09:20:10;4.37;;;3.23;;
32082;SDS011;18597;48.328;7.932;2024-01-25T09:22:36;9.90;;;2.70;;
32082;SDS011;18597;48.328;7.932;2024-01-25T09:25:02;3.30;;;2.40;;
32082;SDS011;18597;48.328;7.932;2024-01-25T09:27:29;3.13;;;2.03;;
32082;SDS011;18597;48.328;7.932;2024-01-25T09:29:55;4.40;;;2.00;;
32082;SDS011;18597;48.328;7.932;2024-01-25T09:32:21;3.33;;;2.73;;
32082;SDS011;18597;48.328;7.932;2024-01-25T09:34:46;9.13;;;2.50;;
32082;SDS011;18597;48.328;7.932;2024-01-25T09:37:13;7.37;;;3.60;;
32082;SDS011;18597;48.328;7.932;2024-01-25T09:39:39;6.43;;;2.83;;
32082;SDS011;18597;48.328;7.932;2024-01-25T09:42:05;4.50;;;2.70;;
32082;SDS011;18597;48.328;7.932;2024-01-25T09:44:32;3.90;;;2.87;;
32082;SDS011;18597;48.328;7.932;2024-01-25T09:46:58;2.80;;;2.27;;
32082;SDS011;18597;48.328;7.932;2024-01-25T09:49:27;4.30;;;2.70;;
32082;SDS011;18597;48.328;7.932;2024-01-25T09:51:53;4.13;;;2.87;;
32082;SDS011;18597;48.328;7.932;2024-01-25T09:54:20;10.97;;;2.93;;
32082;SDS011;18597;48.328;7.932;2024-01-25T09:56:47;7.80;;;3.50;;
32082;SDS011;18597;48.328;7.932;2024-01-25T09:59:16;2.30;;;2.20;;
32082;SDS011;18597;48.328;7.932;2024-01-25T10:01:42;4.00;;;2.43;;
32082;SDS011;18597;48.328;7.932;2024-01-25T10:04:09;3.93;;;2.80;;
32082;SDS011;18597;48.328;7.932;2024-01-25T10:06:34;2.87;;;2.67;;
32082;SDS011;18597;48.328;7.932;2024-01-25T10:09:00;3.03;;;2.37;;
32082;SDS011;18597;48.328;7.932;2024-01-25T10:11:27;2.93;;;2.20;;
32082;SDS011;18597;48.328;7.932;2024-01-25T10:13:58;2.80;;;1.90;;
32082;SDS011;18597;48.328;7.932;2024-01-25T10:16:26;4.43;;;1.73;;
32082;SDS011;18597;48.328;7.932;2024-01-25T10:18:52;2.10;;;1.80;;
32082;SDS011;18597;48.328;7.932;2024-01-25T10:21:18;2.40;;;2.30;;
32082;SDS011;18597;48.328;7.932;2024-01-25T10:23:45;4.70;;;1.70;;
32082;SDS011;18597;48.328;7.932;2024-01-25T10:26:12;6.47;;;3.03;;
32082;SDS011;18597;48.328;7.932;2024-01-25T10:28:38;3.13;;;2.50;;
32082;SDS011;18597;48.328;7.932;2024-01-25T10:31:04;10.10;;;5.50;;
32082;SDS011;18597;48.328;7.932;2024-01-25T10:33:31;4.00;;;2.67;;
32082;SDS011;18597;48.328;7.932;2024-01-25T10:35:57;2.70;;;1.60;;
32082;SDS011;18597;48.328;7.932;2024-01-25T10:38:34;2.03;;;1.60;;
32082;SDS011;18597;48.328;7.932;2024-01-25T10:41:02;2.70;;;1.97;;
32082;SDS011;18597;48.328;7.932;2024-01-25T10:43:30;2.77;;;2.63;;
32082;SDS011;18597;48.328;7.932;2024-01-25T10:45:57;4.90;;;2.50;;
32082;SDS011;18597;48.328;7.932;2024-01-25T10:48:25;3.30;;;2.27;;
32082;SDS011;18597;48.328;7.932;2024-01-25T10:50:52;5.67;;;3.10;;
32082;SDS011;18597;48.328;7.932;2024-01-25T10:53:19;2.50;;;2.30;;
32082;SDS011;18597;48.328;7.932;2024-01-25T10:55:50;3.67;;;2.70;;
32082;SDS011;18597;48.328;7.932;2024-01-25T10:58:16;2.60;;;2.50;;
32082;SDS011;18597;48.328;7.932;2024-01-25T11:00:57;5.93;;;2.63;;
32082;SDS011;18597;48.328;7.932;2024-01-25T11:03:26;3.30;;;2.27;;
32082;SDS011;18597;48.328;7.932;2024-01-25T11:05:55;4.07;;;3.33;;
32082;SDS011;18597;48.328;7.932;2024-01-25T11:08:30;6.70;;;3.90;;
32082;SDS011;18597;48.328;7.932;2024-01-25T11:10:56;4.23;;;2.00;;
32082;SDS011;18597;48.328;7.932;2024-01-25T11:13:24;4.60;;;1.70;;
32082;SDS011;18597;48.328;7.932;2024-01-25T11:15:52;3.33;;;2.90;;
32082;SDS011;18597;48.328;7.932;2024-01-25T11:18:18;3.27;;;2.97;;
32082;SDS011;18597;48.328;7.932;2024-01-25T11:20:46;4.40;;;3.53;;
32082;SDS011;18597;48.328;7.932;2024-01-25T11:23:14;7.43;;;4.90;;
32082;SDS011;18597;48.328;7.932;2024-01-25T11:25:44;6.07;;;5.67;;
32082;SDS011;18597;48.328;7.932;2024-01-25T11:28:13;8.30;;;3.33;;
32082;SDS011;18597;48.328;7.932;2024-01-25T11:30:41;3.53;;;2.53;;
32082;SDS011;18597;48.328;7.932;2024-01-25T11:33:07;1.20;;;1.10;;
32082;SDS011;18597;48.328;7.932;2024-01-25T11:35:34;2.50;;;1.47;;
32082;SDS011;18597;48.328;7.932;2024-01-25T11:38:00;1.33;;;0.90;;
32082;SDS011;18597;48.328;7.932;2024-01-25T11:40:27;3.67;;;0.97;;
32082;SDS011;18597;48.328;7.932;2024-01-25T11:42:56;1.43;;;1.23;;
32082;SDS011;18597;48.328;7.932;2024-01-25T11:45:22;6.63;;;2.50;;
32082;SDS011;18597;48.328;7.932;2024-01-25T11:47:47;3.43;;;1.60;;
32082;SDS011;18597;48.328;7.932;2024-01-25T11:50:14;4.83;;;2.10;;
32082;SDS011;18597;48.328;7.932;2024-01-25T11:52:40;2.90;;;1.00;;
32082;SDS011;18597;48.328;7.932;2024-01-25T11:55:06;4.07;;;1.63;;
32082;SDS011;18597;48.328;7.932;2024-01-25T11:57:34;0.83;;;0.57;;
32082;SDS011;18597;48.328;7.932;2024-01-25T12:00:07;1.40;;;1.40;;
32082;SDS011;18597;48.328;7.932;2024-01-25T12:02:38;7.57;;;5.90;;
32082;SDS011;18597;48.328;7.932;2024-01-25T12:05:05;2.73;;;2.07;;
32082;SDS011;18597;48.328;7.932;2024-01-25T12:07:33;15.53;;;2.00;;
32082;SDS011;18597;48.328;7.932;2024-01-25T12:10:02;5.80;;;1.80;;
32082;SDS011;18597;48.328;7.932;2024-01-25T12:12:31;4.23;;;2.13;;
32082;SDS011;18597;48.328;7.932;2024-01-25T12:14:58;5.47;;;2.57;;
32082;SDS011;18597;48.328;7.932;2024-01-25T12:17:26;1.43;;;1.43;;
32082;SDS011;18597;48.328;7.932;2024-01-25T12:19:54;1.90;;;1.77;;
32082;SDS011;18597;48.328;7.932;2024-01-25T12:22:22;1.83;;;1.73;;
32082;SDS011;18597;48.328;7.932;2024-01-25T12:24:50;1.97;;;1.87;;
32082;SDS011;18597;48.328;7.932;2024-01-25T12:27:21;2.30;;;1.80;;
32082;SDS011;18597;48.328;7.932;2024-01-25T12:29:48;1.87;;;1.77;;
32082;SDS011;18597;48.328;7.932;2024-01-25T12:32:16;2.37;;;2.27;;
32082;SDS011;18597;48.328;7.932;2024-01-25T12:34:52;3.53;;;2.00;;
32082;SDS011;18597;48.328;7.932;2024-01-25T12:37:21;3.83;;;2.00;;
32082;SDS011;18597;48.328;7.932;2024-01-25T12:39:48;2.93;;;1.90;;
32082;SDS011;18597;48.328;7.932;2024-01-25T12:42:16;2.27;;;1.50;;
32082;SDS011;18597;48.328;7.932;2024-01-25T12:44:42;1.67;;;1.60;;
32082;SDS011;18597;48.328;7.932;2024-01-25T12:47:08;2.13;;;1.83;;
32082;SDS011;18597;48.328;7.932;2024-01-25T12:49:34;2.93;;;1.53;;
32082;SDS011;18597;48.328;7.932;2024-01-25T12:52:00;1.73;;;1.63;;
32082;SDS011;18597;48.328;7.932;2024-01-25T12:54:26;2.87;;;2.33;;
32082;SDS011;18597;48.328;7.932;2024-01-25T12:56:53;2.57;;;1.40;;
32082;SDS011;18597;48.328;7.932;2024-01-25T12:59:19;4.20;;;1.97;;
32082;SDS011;18597;48.328;7.932;2024-01-25T13:01:45;1.43;;;1.33;;
32082;SDS011;18597;48.328;7.932;2024-01-25T13:04:11;4.57;;;4.30;;
32082;SDS011;18597;48.328;7.932;2024-01-25T13:06:37;2.97;;;2.77;;
32082;SDS011;18597;48.328;7.932;2024-01-25T13:09:03;1.87;;;1.87;;
32082;SDS011;18597;48.328;7.932;2024-01-25T13:11:29;2.00;;;1.60;;
32082;SDS011;18597;48.328;7.932;2024-01-25T13:13:55;3.43;;;2.40;;
32082;SDS011;18597;48.328;7.932;2024-01-25T13:16:21;6.63;;;4.77;;
32082;SDS011;18597;48.328;7.932;2024-01-25T13:18:47;2.33;;;1.80;;
32082;SDS011;18597;48.328;7.932;2024-01-25T13:21:12;6.93;;;2.83;;
32082;SDS011;18597;48.328;7.932;2024-01-25T13:23:38;11.00;;;5.00;;
32082;SDS011;18597;48.328;7.932;2024-01-25T13:26:04;8.73;;;3.23;;
32082;SDS011;18597;48.328;7.932;2024-01-25T13:28:30;6.63;;;4.27;;
32082;SDS011;18597;48.328;7.932;2024-01-25T13:30:56;16.80;;;12.27;;
32082;SDS011;18597;48.328;7.932;2024-01-25T13:33:22;25.23;;;13.10;;
32082;SDS011;18597;48.328;7.932;2024-01-25T13:35:48;8.63;;;4.40;;
32082;SDS011;18597;48.328;7.932;2024-01-25T13:38:14;6.40;;;3.50;;
32082;SDS011;18597;48.328;7.932;2024-01-25T13:40:41;4.50;;;1.90;;
32082;SDS011;18597;48.328;7.932;2024-01-25T13:43:07;3.37;;;3.07;;
32082;SDS011;18597;48.328;7.932;2024-01-25T13:45:33;2.37;;;2.17;;
32082;SDS011;18597;48.328;7.932;2024-01-25T13:47:59;3.77;;;3.23;;
32082;SDS011;18597;48.328;7.932;2024-01-25T13:50:25;2.20;;;1.73;;
32082;SDS011;18597;48.328;7.932;2024-01-25T13:52:51;3.50;;;2.73;;
32082;SDS011;18597;48.328;7.932;2024-01-25T13:55:17;5.87;;;3.97;;
32082;SDS011;18597;48.328;7.932;2024-01-25T13:57:42;7.70;;;4.60;;
32082;SDS011;18597;48.328;7.932;2024-01-25T14:00:08;2.70;;;2.60;;
32082;SDS011;18597;48.328;7.932;2024-01-25T14:02:35;4.37;;;2.73;;
32082;SDS011;18597;48.328;7.932;2024-01-25T14:05:01;10.80;;;6.90;;
32082;SDS011;18597;48.328;7.932;2024-01-25T14:07:27;10.87;;;6.20;;
32082;SDS011;18597;48.328;7.932;2024-01-25T14:09:53;3.40;;;3.10;;
32082;SDS011;18597;48.328;7.932;2024-01-25T14:12:19;2.00;;;1.40;;
32082;SDS011;18597;48.328;7.932;2024-01-25T14:14:45;1.87;;;1.87;;
32082;SDS011;18597;48.328;7.932;2024-01-25T14:17:10;2.43;;;2.23;;
32082;SDS011;18597;48.328;7.932;2024-01-25T14:19:36;3.13;;;2.93;;
32082;SDS011;18597;48.328;7.932;2024-01-25T14:22:02;19.00;;;9.13;;
32082;SDS011;18597;48.328;7.932;2024-01-25T14:24:28;26.33;;;13.57;;
32082;SDS011;18597;48.328;7.932;2024-01-25T14:26:54;4.20;;;3.43;;
32082;SDS011;18597;48.328;7.932;2024-01-25T14:29:19;9.73;;;7.80;;
32082;SDS011;18597;48.328;7.932;2024-01-25T14:31:45;2.57;;;2.47;;
32082;SDS011;18597;48.328;7.932;2024-01-25T14:34:11;4.40;;;3.03;;